Accueil
METAR-TAF:

METAR-TAF

Aéroports :

Deauville, France

Aéroport de Deauville-Normandie

latitude: 49-21-55N, longitude: 000-09-16E, altitude: 146 m

Observation

Le bulletin a été fait il y a 32 minutes, à 22:00 UTC
Vent 7 kt de est/nord-est
Température 0°C
Humidité 69%
Pression 1019 hPa
Visibilité 10 km ou plus
pas de nuages en-dessous de 1500 mètres et pas de cumulonimbus.

METAR: LFRG 222200Z AUTO 06007KT CAVOK 00/M05 Q1019

Heure: 23:32 (22:32 UTC)

Prévision

Le bulletin a été fait il y a 8 heures et 32 minutes, à 14:00 UTC
Prévision valable du 22 à 15 UTC au 22 à 24 UTC
Vent 10 kt de nord-est
Visibilité: 8000 m
Evoluant progressivement
du 22 à 21 UTC au 22 à 24 UTC
Visibilité: 4000 m
brume

TAF: LFRG 221400Z 2215/2224 05010KT 8000 NSC BECMG 2221/2224 4000 BR

Observations et prévisions météorologiques de plus de 4000 aéroports (messages METAR et TAF).

Les stations disponibles sont représentées par des disques jaunes et rouges sur la carte.

Passer la souris dessus pour voir le nom de la station.

Cliquer dessus pour voir les observations et prévisions météorologiques.

Pour changer de carte: cliquez sur les boutons verts avec une croix noire pour zoomer, sur le bouton vert avec un tiret pour effectuer un zoom arrière, ou sur les flèches vertes pour les cartes adjacentes.


METAR-TAF: